Time;durP1;ratioP1;P1;durP2;ratioP2;P2;SDS_P1;SDS_P2;PMS_P1;PMS_P2;Temp;Humidity;BMP_temperature;BMP_pressure;BME280_temperature;BME280_humidity;BME280_pressure;Samples;Min_cycle;Max_cycle;Signal;HPM_P1;HPM_P2
2022/06/17 00:01:30;;;;;;;2.80;1.52;;;20.50;65.30;;;;;;5023422;28;20017;-81
2022/06/17 00:03:56;;;;;;;6.72;1.77;;;20.40;64.90;;;;;;5030676;28;20062;-78
2022/06/17 00:06:25;;;;;;;2.72;1.60;;;20.40;65.10;;;;;;5030688;28;20090;-81
2022/06/17 00:08:52;;;;;;;4.15;1.40;;;20.40;64.40;;;;;;5027731;28;20081;-81
2022/06/17 00:11:38;;;;;;;2.92;1.75;;;20.40;64.90;;;;;;5026406;28;20021;-81
2022/06/17 00:15:11;;;;;;;3.03;1.60;;;20.30;65.20;;;;;;5027370;28;20019;-81
2022/06/17 00:17:22;;;;;;;2.80;1.75;;;20.30;65.60;;;;;;5021819;28;20030;-80
2022/06/17 00:19:48;;;;;;;3.38;1.90;;;;;;;;;;5007007;28;20483;-83
2022/06/17 00:22:14;;;;;;;4.55;2.10;;;20.30;65.50;;;;;;5007844;28;20059;-81
2022/06/17 00:24:42;;;;;;;2.72;1.60;;;21.80;67.50;;;;;;5010051;28;20034;-79
2022/06/17 00:27:10;;;;;;;3.90;1.95;;;20.20;66.50;;;;;;5006868;28;20263;-83
2022/06/17 00:29:36;;;;;;;5.53;1.50;;;20.20;67.10;;;;;;5003560;28;20026;-83
2022/06/17 00:32:02;;;;;;;5.22;1.60;;;20.10;67.30;;;;;;5005891;28;20034;-80
2022/06/17 00:34:28;;;;;;;4.07;1.38;;;20.10;67.80;;;;;;5004390;28;20390;-81
2022/06/17 00:36:59;;;;;;;3.78;1.60;;;20.00;67.90;;;;;;5004311;28;20755;-81
2022/06/17 00:39:29;;;;;;;6.40;1.70;;;20.00;68.00;;;;;;5011847;28;20022;-80
2022/06/17 00:42:03;;;;;;;4.77;1.80;;;20.00;68.00;;;;;;5023188;28;20025;-82
2022/06/17 00:44:47;;;;;;;3.10;1.73;;;19.90;68.00;;;;;;5025402;28;20553;-82
2022/06/17 00:47:19;;;;;;;3.10;1.60;;;20.00;67.90;;;;;;5020110;28;20030;-80
2022/06/17 00:49:54;;;;;;;5.25;1.45;;;19.90;68.00;;;;;;5019679;28;20062;-82
2022/06/17 00:52:50;;;;;;;4.22;1.67;;;19.80;68.10;;;;;;5019503;28;20022;-83
2022/06/17 00:55:59;;;;;;;2.20;1.40;;;19.80;67.80;;;;;;5023599;28;20040;-83
2022/06/17 00:58:28;;;;;;;3.53;1.77;;;19.80;68.40;;;;;;4921096;29;20122;-79
2022/06/17 01:00:57;;;;;;;3.95;1.92;;;19.80;67.80;;;;;;4989718;28;20176;-79
2022/06/17 01:03:41;;;;;;;2.75;1.45;;;19.80;67.70;;;;;;5010619;28;20041;-79
2022/06/17 01:06:16;;;;;;;3.38;1.48;;;19.70;67.70;;;;;;5007454;28;20027;-80
2022/06/17 01:11:34;;;;;;;7.05;1.65;;;19.80;68.00;;;;;;5004759;28;20124;-82
2022/06/17 01:14:03;;;;;;;3.17;1.67;;;19.80;68.10;;;;;;5006343;28;20185;-82
2022/06/17 01:16:33;;;;;;;7.75;2.20;;;19.80;68.30;;;;;;5006055;28;20022;-82
2022/06/17 01:19:04;;;;;;;5.43;1.77;;;19.80;68.70;;;;;;5007362;28;20022;-81
2022/06/17 01:21:38;;;;;;;3.85;1.50;;;19.80;68.50;;;;;;5007836;28;20406;-81
2022/06/17 01:24:07;;;;;;;2.85;1.60;;;19.80;68.70;;;;;;5003472;28;20113;-82
2022/06/17 01:26:33;;;;;;;2.95;1.50;;;19.70;68.70;;;;;;5005585;28;20030;-81
2022/06/17 01:28:59;;;;;;;2.67;1.50;;;19.70;68.70;;;;;;5007730;28;20459;-82
2022/06/17 01:31:24;;;;;;;4.32;1.80;;;19.60;69.00;;;;;;5005853;28;20062;-82
2022/06/17 01:33:50;;;;;;;2.72;1.50;;;19.60;69.30;;;;;;5009009;28;20441;-84
2022/06/17 01:36:23;;;;;;;3.88;1.55;;;19.60;69.10;;;;;;5008916;28;20026;-83
2022/06/17 01:38:52;;;;;;;2.17;1.50;;;19.60;69.40;;;;;;5003578;28;20022;-83
2022/06/17 01:41:20;;;;;;;3.38;1.48;;;19.60;69.50;;;;;;5006032;28;20037;-82
2022/06/17 01:43:53;;;;;;;2.83;1.60;;;19.50;69.70;;;;;;5005939;28;20106;-84
2022/06/17 01:46:34;;;;;;;2.83;1.52;;;19.40;69.80;;;;;;5007455;28;20073;-83
2022/06/17 01:49:11;;;;;;;4.80;1.67;;;19.40;69.80;;;;;;5009990;28;20030;-80
2022/06/17 01:51:41;;;;;;;3.40;1.48;;;19.30;69.80;;;;;;5006376;28;20433;-83
2022/06/17 01:54:12;;;;;;;2.10;1.40;;;19.30;69.90;;;;;;5007819;28;20041;-83
2022/06/17 01:56:41;;;;;;;4.30;1.50;;;19.30;70.10;;;;;;5005622;28;20030;-84
2022/06/17 01:59:13;;;;;;;2.22;1.48;;;19.20;70.30;;;;;;5007534;28;20391;-82
2022/06/17 02:01:42;;;;;;;3.40;1.60;;;19.20;70.40;;;;;;5007593;28;20039;-81
2022/06/17 02:04:16;;;;;;;5.00;1.50;;;19.10;70.40;;;;;;5005893;28;20045;-83
2022/06/17 02:07:22;;;;;;;2.22;1.52;;;19.10;70.70;;;;;;5002498;28;20026;-83
2022/06/17 02:09:48;;;;;;;2.53;1.40;;;19.10;70.90;;;;;;5004183;28;20038;-81
2022/06/17 02:12:17;;;;;;;2.55;1.42;;;19.10;71.20;;;;;;5003126;28;20042;-81
2022/06/17 02:14:44;;;;;;;4.07;1.90;;;19.00;71.20;;;;;;5003639;28;20031;-83
2022/06/17 02:17:10;;;;;;;4.72;1.70;;;19.00;71.40;;;;;;5007567;28;20081;-81
2022/06/17 02:19:38;;;;;;;3.53;1.50;;;19.00;71.60;;;;;;5003662;28;20030;-82
2022/06/17 02:22:11;;;;;;;2.47;1.40;;;19.00;71.20;;;;;;5003609;28;20029;-82
2022/06/17 02:24:38;;;;;;;3.92;2.03;;;19.00;71.70;;;;;;5008210;28;20494;-81
2022/06/17 02:27:06;;;;;;;3.15;1.50;;;18.90;71.60;;;;;;5002712;28;20019;-84
2022/06/17 02:29:35;;;;;;;1.98;1.45;;;19.00;71.80;;;;;;5002466;28;20026;-83
2022/06/17 02:32:05;;;;;;;4.03;1.95;;;18.90;71.60;;;;;;5006093;28;20053;-82
2022/06/17 02:34:32;;;;;;;2.05;1.63;;;18.90;71.90;;;;;;5001939;28;20030;-82
2022/06/17 02:37:09;;;;;;;5.28;1.70;;;18.80;72.10;;;;;;5006514;28;20022;-85
2022/06/17 02:39:40;;;;;;;4.03;1.60;;;18.80;72.70;;;;;;5013451;28;20029;-84
2022/06/17 02:42:06;;;;;;;4.15;1.85;;;18.80;73.20;;;;;;5003762;28;20022;-84
2022/06/17 02:44:35;;;;;;;2.95;1.90;;;18.70;73.40;;;;;;5006059;28;20065;-82
2022/06/17 02:47:01;;;;;;;4.70;1.42;;;18.70;73.60;;;;;;5004498;28;20022;-82
2022/06/17 02:49:33;;;;;;;3.80;1.63;;;18.70;73.70;;;;;;5007347;28;20030;-81
2022/06/17 02:52:01;;;;;;;4.57;1.70;;;18.70;74.00;;;;;;5003665;28;20033;-82
2022/06/17 02:54:42;;;;;;;2.63;1.50;;;18.70;73.90;;;;;;5007766;28;20022;-81
2022/06/17 02:57:17;;;;;;;4.38;1.70;;;18.60;73.90;;;;;;5012897;28;20996;-82
2022/06/17 02:59:50;;;;;;;3.30;1.80;;;18.50;74.10;;;;;;5009774;28;20088;-81
2022/06/17 03:02:23;;;;;;;2.92;1.42;;;18.50;74.40;;;;;;5011029;28;20037;-85
2022/06/17 03:04:50;;;;;;;2.63;1.55;;;18.40;74.60;;;;;;5009048;28;20042;-82
2022/06/17 03:07:19;;;;;;;1.92;1.60;;;18.30;75.00;;;;;;5013243;28;20041;-82
2022/06/17 03:09:45;;;;;;;3.58;1.42;;;18.30;75.20;;;;;;5001491;28;20030;-83
2022/06/17 03:12:19;;;;;;;2.55;1.50;;;18.30;75.10;;;;;;5010872;28;20032;-82
2022/06/17 03:14:47;;;;;;;3.83;1.60;;;18.30;74.70;;;;;;5001284;28;20041;-81
2022/06/17 03:17:17;;;;;;;2.55;1.50;;;18.30;75.10;;;;;;5027461;28;20026;-81
2022/06/17 03:19:45;;;;;;;3.28;1.63;;;18.30;75.30;;;;;;5022981;28;20048;-80
2022/06/17 03:22:13;;;;;;;2.88;1.60;;;18.30;75.70;;;;;;5028838;28;20018;-80
2022/06/17 03:24:43;;;;;;;3.85;1.65;;;18.30;75.80;;;;;;5024841;28;20022;-80
2022/06/17 03:27:18;;;;;;;2.42;1.55;;;18.30;75.40;;;;;;5030489;28;20026;-82
2022/06/17 03:29:46;;;;;;;2.88;1.50;;;18.30;75.80;;;;;;5032816;28;20070;-80
2022/06/17 03:32:20;;;;;;;2.58;1.50;;;18.20;75.80;;;;;;5029874;28;20007;-81
2022/06/17 03:34:55;;;;;;;5.75;2.42;;;18.10;75.90;;;;;;5028186;28;20050;-83
2022/06/17 03:37:23;;;;;;;6.95;2.15;;;18.10;76.60;;;;;;5030157;28;20237;-83
2022/06/17 03:39:54;;;;;;;4.07;2.40;;;18.10;77.00;;;;;;5030292;28;20030;-80
2022/06/17 03:42:26;;;;;;;2.35;1.77;;;18.00;77.30;;;;;;5033923;28;20049;-82
2022/06/17 03:44:59;;;;;;;3.08;1.55;;;18.00;77.60;;;;;;5027621;28;20094;-79
2022/06/17 03:47:34;;;;;;;7.28;3.78;;;17.90;77.20;;;;;;5026791;28;20036;-80
2022/06/17 03:50:05;;;;;;;2.80;1.60;;;17.90;77.50;;;;;;5027549;28;20022;-79
2022/06/17 03:52:48;;;;;;;4.28;2.20;;;17.90;77.80;;;;;;5025379;28;20093;-81
2022/06/17 03:55:17;;;;;;;4.28;2.30;;;17.90;77.80;;;;;;5025718;28;20021;-82
2022/06/17 03:57:51;;;;;;;3.55;1.98;;;17.90;77.90;;;;;;5027518;28;20108;-81
2022/06/17 04:00:46;;;;;;;2.90;1.70;;;17.90;78.10;;;;;;5025476;28;20009;-81
2022/06/17 04:03:22;;;;;;;3.95;1.65;;;17.90;78.00;;;;;;5032914;23;20056;-86
2022/06/17 04:05:56;;;;;;;5.38;1.70;;;17.90;78.00;;;;;;5020840;28;20523;-88
2022/06/17 04:08:22;;;;;;;2.63;1.70;;;20.00;79.10;;;;;;5016136;28;20026;-84
2022/06/17 04:10:48;;;;;;;3.38;1.60;;;18.00;78.20;;;;;;5029105;28;20377;-86
2022/06/17 04:13:21;;;;;;;8.18;1.90;;;18.40;78.70;;;;;;5019385;28;20042;-87
2022/06/17 04:15:57;;;;;;;4.90;1.90;;;17.90;78.40;;;;;;5012960;28;20026;-87
2022/06/17 04:18:23;;;;;;;4.25;2.03;;;;;;;;;;5014527;28;20049;-85
2022/06/17 04:20:49;;;;;;;4.80;1.90;;;;;;;;;;5015043;28;20026;-85
2022/06/17 04:23:31;;;;;;;13.95;2.55;;;18.10;77.50;;;;;;5032293;28;20487;-87
2022/06/17 04:26:15;;;;;;;19.20;3.42;;;18.10;78.10;;;;;;5027279;28;20037;-85
2022/06/17 04:28:54;;;;;;;9.05;2.42;;;18.10;78.10;;;;;;5015365;28;20045;-84
2022/06/17 04:31:25;;;;;;;12.70;2.75;;;18.20;77.70;;;;;;5019083;28;20029;-85
2022/06/17 04:33:54;;;;;;;8.55;2.50;;;18.20;78.00;;;;;;5031616;28;20029;-85
2022/06/17 04:36:23;;;;;;;4.45;1.65;;;18.20;77.60;;;;;;5016821;28;20120;-85
2022/06/17 04:39:14;;;;;;;4.88;2.00;;;18.20;77.80;;;;;;5010735;28;20037;-84
2022/06/17 04:41:41;;;;;;;4.40;1.73;;;18.30;77.60;;;;;;5009610;28;20047;-86
2022/06/17 04:44:13;;;;;;;3.38;1.83;;;18.30;77.60;;;;;;5016380;28;20499;-85
2022/06/17 04:46:50;;;;;;;4.85;2.00;;;18.40;77.50;;;;;;5035522;28;20056;-87
2022/06/17 04:49:20;;;;;;;5.15;2.00;;;18.40;77.40;;;;;;5031846;28;20492;-84
2022/06/17 04:51:47;;;;;;;3.20;2.05;;;;;;;;;;5033463;28;20281;-84
2022/06/17 04:54:13;;;;;;;4.65;1.83;;;18.40;77.40;;;;;;5019926;28;20049;-86
2022/06/17 04:56:46;;;;;;;3.45;1.85;;;18.90;77.70;;;;;;5021431;28;20086;-85
2022/06/17 04:59:16;;;;;;;3.67;1.80;;;18.60;77.40;;;;;;5020820;28;20033;-82
2022/06/17 05:01:42;;;;;;;3.92;1.77;;;;;;;;;;5019109;28;20434;-84
2022/06/17 05:04:08;;;;;;;5.45;2.22;;;18.60;76.70;;;;;;5022009;28;20045;-84
2022/06/17 05:06:33;;;;;;;2.45;1.63;;;18.60;77.20;;;;;;5019919;28;20030;-86
2022/06/17 05:09:25;;;;;;;3.22;1.83;;;18.70;76.80;;;;;;5020656;28;20022;-83
2022/06/17 05:11:58;;;;;;;4.03;1.70;;;18.70;76.90;;;;;;5033415;28;20037;-86
2022/06/17 05:14:35;;;;;;;2.80;1.50;;;18.70;76.40;;;;;;5016671;28;20129;-83
2022/06/17 05:17:00;;;;;;;4.30;1.80;;;18.80;76.60;;;;;;5022710;28;20093;-84
2022/06/17 05:19:26;;;;;;;4.65;1.88;;;19.00;75.60;;;;;;5018783;28;20034;-85
2022/06/17 05:21:52;;;;;;;3.42;1.85;;;;;;;;;;5013172;28;20113;-83
2022/06/17 05:24:18;;;;;;;4.07;1.80;;;20.20;72.70;;;;;;5014892;28;20038;-83
2022/06/17 05:26:44;;;;;;;2.58;1.60;;;21.30;70.80;;;;;;5036189;28;20029;-82
2022/06/17 05:29:10;;;;;;;3.47;1.50;;;22.40;67.90;;;;;;5033919;28;20037;-83
2022/06/17 05:31:36;;;;;;;4.10;1.67;;;23.30;65.10;;;;;;5032343;28;20099;-79
2022/06/17 05:34:04;;;;;;;4.32;1.70;;;24.40;63.50;;;;;;5008003;28;20034;-81
2022/06/17 05:36:30;;;;;;;3.25;1.50;;;;;;;;;;5026037;28;20057;-82
2022/06/17 05:38:55;;;;;;;2.22;1.30;;;25.90;58.90;;;;;;5011356;28;20025;-82
2022/06/17 05:41:24;;;;;;;4.13;1.67;;;26.00;58.70;;;;;;5032136;28;20056;-83
2022/06/17 05:43:50;;;;;;;3.37;1.60;;;;;;;;;;5030002;28;20293;-85
2022/06/17 05:46:17;;;;;;;4.13;1.50;;;25.40;59.40;;;;;;5027670;28;20123;-84
2022/06/17 05:48:43;;;;;;;3.47;1.70;;;;;;;;;;5025702;28;20542;-78
2022/06/17 05:51:12;;;;;;;5.10;1.77;;;24.90;60.50;;;;;;5021868;28;20066;-79
2022/06/17 05:53:38;;;;;;;2.90;1.55;;;25.10;61.50;;;;;;5013529;28;20022;-79
2022/06/17 05:56:04;;;;;;;9.52;4.78;;;25.20;60.90;;;;;;5005480;28;20487;-80
2022/06/17 05:58:29;;;;;;;4.78;2.10;;;25.70;60.20;;;;;;5012871;28;20368;-81
2022/06/17 06:00:55;;;;;;;2.83;1.65;;;26.30;59.50;;;;;;5016151;28;20065;-81
2022/06/17 06:03:23;;;;;;;4.10;1.52;;;26.70;58.40;;;;;;5017386;28;20030;-81
2022/06/17 06:05:50;;;;;;;3.53;1.92;;;27.10;57.90;;;;;;5005841;28;20121;-80
2022/06/17 06:08:18;;;;;;;2.85;1.50;;;26.70;57.80;;;;;;5019386;28;20045;-79
2022/06/17 06:10:43;;;;;;;3.25;1.40;;;26.60;58.20;;;;;;5017200;28;20132;-81
2022/06/17 06:13:22;;;;;;;6.28;2.53;;;26.20;59.20;;;;;;5020680;28;20030;-85
2022/06/17 06:15:50;;;;;;;6.88;3.13;;;25.30;59.80;;;;;;5030059;28;20026;-84
2022/06/17 06:18:19;;;;;;;4.75;1.60;;;25.30;60.20;;;;;;5020776;28;20033;-83
2022/06/17 06:20:44;;;;;;;3.80;1.60;;;24.80;61.20;;;;;;5027438;28;20041;-86
2022/06/17 06:23:10;;;;;;;3.60;2.08;;;24.50;61.90;;;;;;5021787;28;20042;-85
2022/06/17 06:25:36;;;;;;;3.28;1.77;;;24.50;62.00;;;;;;5039242;28;20022;-86
2022/06/17 06:28:23;;;;;;;2.67;1.40;;;24.40;62.10;;;;;;5016534;28;20125;-86
2022/06/17 06:30:53;;;;;;;2.85;1.60;;;23.90;62.40;;;;;;5020932;28;20046;-88
2022/06/17 06:33:20;;;;;;;3.03;1.50;;;;;;;;;;5037932;28;20014;-87
2022/06/17 06:35:46;;;;;;;4.70;1.65;;;;;;;;;;5033655;28;20042;-86
2022/06/17 06:38:12;;;;;;;4.57;1.73;;;;;;;;;;5040580;28;20025;-85
2022/06/17 06:40:38;;;;;;;4.13;1.67;;;;;;;;;;5023743;28;20030;-86
2022/06/17 06:43:15;;;;;;;3.72;1.58;;;24.00;63.10;;;;;;5025572;28;20552;-84
2022/06/17 06:45:42;;;;;;;5.07;1.70;;;24.40;62.50;;;;;;5041347;28;20050;-85
2022/06/17 06:48:10;;;;;;;2.80;1.52;;;24.40;62.90;;;;;;5015852;28;20399;-86
2022/06/17 06:50:38;;;;;;;4.80;1.80;;;24.40;62.60;;;;;;5019511;28;20030;-84
2022/06/17 06:53:05;;;;;;;4.75;1.50;;;24.50;62.20;;;;;;5027448;28;20030;-84
2022/06/17 06:55:31;;;;;;;5.32;1.40;;;;;;;;;;5015984;28;20084;-83
2022/06/17 06:58:00;;;;;;;5.15;1.52;;;24.50;62.00;;;;;;5020758;28;20045;-85
2022/06/17 07:00:38;;;;;;;2.28;1.52;;;24.20;62.40;;;;;;5033334;28;20034;-85
2022/06/17 07:03:04;;;;;;;3.85;1.60;;;24.10;62.80;;;;;;5032004;28;20400;-87
2022/06/17 07:05:31;;;;;;;3.20;1.48;;;24.00;63.10;;;;;;5022363;28;20124;-85
2022/06/17 07:07:57;;;;;;;1.65;1.10;;;;;;;;;;5014853;28;20023;-84
2022/06/17 07:10:28;;;;;;;2.33;1.33;;;24.10;62.60;;;;;;5032555;28;20030;-83
2022/06/17 07:12:54;;;;;;;2.92;1.23;;;24.10;63.00;;;;;;5018196;28;20035;-85
2022/06/17 07:15:21;;;;;;;5.55;1.50;;;24.00;62.70;;;;;;5027470;28;20107;-83
2022/06/17 07:18:20;;;;;;;3.63;1.30;;;23.90;63.50;;;;;;5038519;28;20030;-84
2022/06/17 07:20:50;;;;;;;5.30;1.48;;;23.80;63.80;;;;;;5017986;28;20025;-85
2022/06/17 07:23:17;;;;;;;;;;;23.70;63.90;;;;;;5025492;28;20057;-84
2022/06/17 07:25:44;;;;;;;4.63;1.58;;;;;;;;;;5016665;28;20410;-86
2022/06/17 07:28:19;;;;;;;3.28;1.33;;;23.70;63.80;;;;;;5021831;28;20490;-81
2022/06/17 07:30:47;;;;;;;2.85;1.65;;;23.70;64.40;;;;;;5018019;28;20033;-85
2022/06/17 07:33:14;;;;;;;3.40;1.40;;;23.80;64.50;;;;;;5038740;28;20034;-84
2022/06/17 07:35:41;;;;;;;3.00;1.60;;;23.90;63.80;;;;;;5022709;28;20040;-84
2022/06/17 07:40:57;;;;;;;3.75;1.30;;;24.10;63.70;;;;;;5024870;28;20076;-84
2022/06/17 07:43:23;;;;;;;2.58;1.30;;;24.30;63.90;;;;;;5035775;28;20026;-84
2022/06/17 07:45:49;;;;;;;2.38;1.27;;;24.40;63.40;;;;;;5029374;28;20037;-81
2022/06/17 07:48:16;;;;;;;3.35;1.25;;;24.60;63.10;;;;;;5011604;28;20471;-82
2022/06/17 07:50:43;;;;;;;3.50;1.40;;;24.60;63.00;;;;;;5016663;28;20165;-83
2022/06/17 07:53:09;;;;;;;1.83;1.20;;;;;;;;;;5021978;28;20052;-82
2022/06/17 07:55:35;;;;;;;3.67;1.50;;;;;;;;;;5015788;28;20093;-82
2022/06/17 07:58:01;;;;;;;4.57;1.42;;;24.90;61.30;;;;;;5035130;28;20104;-82
2022/06/17 08:00:36;;;;;;;4.88;1.40;;;24.90;61.90;;;;;;5008176;28;20029;-81
2022/06/17 08:03:02;;;;;;;3.22;1.23;;;;;;;;;;5022091;28;20109;-86
2022/06/17 08:05:28;;;;;;;3.45;1.55;;;;;;;;;;5039288;28;20104;-82
2022/06/17 08:07:55;;;;;;;3.53;1.40;;;25.00;60.20;;;;;;5016694;28;20022;-83
2022/06/17 08:10:24;;;;;;;2.30;1.35;;;25.20;60.10;;;;;;5024430;28;20037;-82
2022/06/17 08:12:50;;;;;;;2.50;1.40;;;25.10;60.80;;;;;;5009800;28;20061;-83
2022/06/17 08:15:17;;;;;;;3.03;1.30;;;;;;;;;;5028116;28;20068;-83
2022/06/17 08:17:43;;;;;;;3.13;1.15;;;;;;;;;;5014737;28;20492;-84
2022/06/17 08:20:38;;;;;;;2.33;1.08;;;25.40;59.60;;;;;;5014426;28;20033;-87
2022/06/17 08:23:05;;;;;;;3.65;1.20;;;25.20;60.10;;;;;;5005096;28;20045;-85
2022/06/17 08:25:32;;;;;;;2.72;1.25;;;25.20;60.00;;;;;;5033432;28;20029;-84
2022/06/17 08:28:02;;;;;;;2.00;1.13;;;25.30;59.60;;;;;;5033416;28;20555;-87
2022/06/17 08:30:31;;;;;;;3.40;1.30;;;25.30;59.40;;;;;;5005916;28;20030;-84
2022/06/17 08:32:57;;;;;;;2.75;1.20;;;;;;;;;;5015509;28;20470;-83
2022/06/17 08:35:29;;;;;;;2.50;1.27;;;25.10;59.50;;;;;;5048062;28;20069;-86
2022/06/17 08:38:06;;;;;;;3.47;1.15;;;25.10;59.90;;;;;;5050102;28;20053;-89
2022/06/17 08:40:55;;;;;;;3.20;1.45;;;25.20;59.90;;;;;;5033469;28;20621;-87
2022/06/17 08:43:58;;;;;;;2.30;1.02;;;25.00;59.60;;;;;;5037297;28;20030;-85
2022/06/17 08:46:54;;;;;;;4.60;1.42;;;25.10;60.00;;;;;;5032130;28;20037;-85
2022/06/17 08:49:28;;;;;;;4.68;1.55;;;25.30;60.10;;;;;;5030819;28;20038;-85
2022/06/17 08:52:02;;;;;;;3.13;1.25;;;25.30;59.70;;;;;;5032317;28;20109;-85
2022/06/17 08:54:34;;;;;;;3.58;1.42;;;25.20;59.10;;;;;;5030833;28;20058;-87
2022/06/17 08:57:11;;;;;;;2.95;1.50;;;25.40;59.50;;;;;;5012766;28;20037;-83
2022/06/17 08:59:46;;;;;;;3.83;1.67;;;25.60;59.00;;;;;;5006748;28;20034;-83
2022/06/17 09:02:30;;;;;;;2.05;1.30;;;25.50;57.50;;;;;;5015220;28;20026;-84
2022/06/17 09:05:20;;;;;;;3.40;1.20;;;25.50;58.00;;;;;;5012360;28;20030;-83
2022/06/17 09:08:23;;;;;;;1.83;1.20;;;25.70;58.30;;;;;;5021530;28;20022;-83
2022/06/17 09:10:57;;;;;;;7.03;1.40;;;25.90;57.80;;;;;;5032221;28;20022;-83
2022/06/17 09:13:45;;;;;;;1.27;1.00;;;26.00;57.00;;;;;;5033073;28;20376;-83
2022/06/17 09:16:24;;;;;;;2.55;1.20;;;26.10;56.70;;;;;;5019115;28;20037;-83
2022/06/17 09:18:59;;;;;;;2.22;1.40;;;26.40;56.60;;;;;;5014631;28;20081;-83
2022/06/17 09:21:31;;;;;;;2.08;1.10;;;26.50;54.30;;;;;;5019076;28;20030;-84
2022/06/17 09:24:02;;;;;;;2.33;1.10;;;26.60;55.20;;;;;;5030052;28;20030;-84
2022/06/17 09:26:33;;;;;;;3.15;1.23;;;26.60;56.50;;;;;;5014279;28;20030;-84
2022/06/17 09:29:11;;;;;;;1.85;1.00;;;26.70;57.50;;;;;;5015272;28;20026;-84
2022/06/17 09:31:47;;;;;;;4.53;1.30;;;26.70;56.70;;;;;;5016748;28;20046;-82
2022/06/17 09:34:18;;;;;;;3.80;1.25;;;27.00;56.50;;;;;;5026295;28;20565;-86
2022/06/17 09:37:11;;;;;;;1.63;0.90;;;27.10;56.80;;;;;;5008131;28;20057;-83
2022/06/17 09:39:41;;;;;;;3.15;1.10;;;27.20;54.40;;;;;;5017253;28;20022;-84
2022/06/17 09:42:18;;;;;;;;;;;27.20;55.20;;;;;;5017658;28;20033;-84
2022/06/17 09:44:54;;;;;;;1.88;1.13;;;27.70;54.50;;;;;;5012964;28;19909;-85
2022/06/17 09:47:46;;;;;;;2.75;1.10;;;26.80;54.30;;;;;;5034735;28;20018;-84
2022/06/17 09:50:31;;;;;;;1.73;1.08;;;27.80;55.50;;;;;;5019317;28;20028;-84
2022/06/17 09:53:06;;;;;;;1.67;1.05;;;27.90;54.60;;;;;;5019902;28;20384;-84
2022/06/17 09:55:41;;;;;;;2.72;1.10;;;27.90;55.20;;;;;;5019468;28;20211;-83
2022/06/17 09:58:16;;;;;;;4.63;1.23;;;28.20;55.80;;;;;;5017584;28;20105;-85
2022/06/17 10:00:49;;;;;;;3.97;1.33;;;28.00;54.80;;;;;;5014611;28;20093;-83
2022/06/17 10:03:24;;;;;;;3.25;1.00;;;27.90;55.20;;;;;;5031595;28;20167;-85
2022/06/17 10:06:00;;;;;;;2.22;1.25;;;28.00;55.10;;;;;;5016109;28;20495;-83
2022/06/17 10:08:26;;;;;;;3.20;1.10;;;;;;;;;;5010664;28;20090;-83
2022/06/17 10:11:06;;;;;;;4.28;1.00;;;28.10;54.30;;;;;;5012702;28;20096;-83
2022/06/17 10:13:59;;;;;;;3.22;1.00;;;28.00;53.90;;;;;;5013818;28;20124;-84
2022/06/17 10:20:09;;;;;;;3.63;1.48;;;28.10;53.40;;;;;;5015107;28;20029;-85
2022/06/17 10:23:02;;;;;;;2.08;1.27;;;28.30;53.50;;;;;;5017292;28;20030;-82
2022/06/17 10:25:57;;;;;;;2.97;1.10;;;28.30;53.80;;;;;;5015669;28;20026;-83
2022/06/17 10:28:50;;;;;;;1.60;0.98;;;28.30;53.30;;;;;;5009207;28;20046;-83
2022/06/17 10:31:31;;;;;;;2.25;1.08;;;28.50;53.40;;;;;;5027131;28;20057;-82
2022/06/17 10:34:00;;;;;;;1.63;1.00;;;28.70;53.40;;;;;;5017514;28;20480;-84
2022/06/17 10:36:26;;;;;;;3.33;1.40;;;28.90;53.10;;;;;;5016095;28;20057;-85
2022/06/17 10:38:52;;;;;;;1.45;1.15;;;28.90;52.80;;;;;;5016354;28;20497;-86
2022/06/17 10:41:18;;;;;;;2.42;1.20;;;28.70;52.60;;;;;;5031026;28;20037;-87
2022/06/17 10:43:48;;;;;;;2.05;1.13;;;28.70;53.10;;;;;;5021977;28;20130;-86
2022/06/17 10:46:23;;;;;;;1.77;0.93;;;28.90;51.20;;;;;;5012112;28;20029;-86
2022/06/17 10:49:05;;;;;;;3.13;0.80;;;29.10;49.90;;;;;;5020590;28;20029;-84
2022/06/17 10:51:34;;;;;;;2.88;1.00;;;29.00;49.50;;;;;;5015927;28;20025;-80
2022/06/17 10:54:04;;;;;;;1.90;1.00;;;29.10;50.20;;;;;;5018237;28;20485;-83
2022/06/17 10:56:40;;;;;;;6.65;1.58;;;29.10;49.30;;;;;;5018479;28;20119;-83
2022/06/17 10:59:10;;;;;;;2.25;0.82;;;29.20;49.30;;;;;;5011575;28;20049;-82
2022/06/17 11:01:47;;;;;;;1.73;0.90;;;29.30;49.50;;;;;;5009635;28;20029;-82
2022/06/17 11:04:19;;;;;;;4.88;1.10;;;29.20;49.60;;;;;;5015270;28;20030;-81
2022/06/17 11:07:13;;;;;;;6.03;0.90;;;29.30;49.50;;;;;;5015106;28;20030;-82
2022/06/17 11:09:46;;;;;;;1.45;0.98;;;29.60;49.20;;;;;;5011815;28;20054;-83
2022/06/17 11:12:24;;;;;;;1.75;0.90;;;29.30;48.60;;;;;;5023073;28;20034;-83
2022/06/17 11:15:06;;;;;;;2.28;0.90;;;29.30;48.90;;;;;;5037111;28;20058;-82
2022/06/17 11:17:40;;;;;;;3.28;1.10;;;29.40;49.30;;;;;;5024078;28;20030;-82
2022/06/17 11:20:34;;;;;;;2.33;1.20;;;29.60;49.20;;;;;;5018864;28;20025;-83
2022/06/17 11:23:15;;;;;;;1.30;1.00;;;31.20;50.60;;;;;;5011223;28;20121;-82
2022/06/17 11:25:42;;;;;;;1.33;0.80;;;29.70;49.30;;;;;;5035569;28;20026;-82
2022/06/17 11:28:17;;;;;;;1.58;0.90;;;29.80;48.80;;;;;;5020328;28;20032;-85
2022/06/17 11:31:02;;;;;;;5.80;1.33;;;29.80;48.90;;;;;;5051730;28;20025;-85
2022/06/17 11:33:34;;;;;;;1.48;0.80;;;29.60;48.50;;;;;;5028983;28;20040;-85
2022/06/17 11:36:03;;;;;;;1.80;0.90;;;29.40;48.30;;;;;;5036127;28;20033;-86
2022/06/17 11:38:31;;;;;;;2.40;0.90;;;29.60;48.30;;;;;;5049442;28;20118;-84
2022/06/17 11:41:00;;;;;;;3.70;1.10;;;;;;;;;;5030188;28;20109;-84
2022/06/17 11:43:42;;;;;;;3.17;1.17;;;29.80;48.20;;;;;;5047683;28;20034;-85
2022/06/17 11:46:23;;;;;;;1.73;0.90;;;30.00;47.60;;;;;;5030910;28;20026;-85
2022/06/17 11:48:56;;;;;;;3.45;0.82;;;30.00;48.50;;;;;;5033431;28;20022;-84
2022/06/17 11:51:35;;;;;;;2.42;1.50;;;30.00;48.50;;;;;;5013520;28;20116;-83
2022/06/17 11:54:19;;;;;;;2.57;1.03;;;30.40;47.70;;;;;;5006600;28;20050;-82
2022/06/17 11:56:46;;;;;;;3.42;1.10;;;29.50;46.80;;;;;;5008192;28;20034;-81
2022/06/17 11:59:19;;;;;;;3.80;1.20;;;30.30;46.70;;;;;;5025165;28;20021;-82
2022/06/17 12:01:54;;;;;;;2.67;0.80;;;30.20;47.00;;;;;;5015283;28;20026;-83
2022/06/17 12:04:41;;;;;;;1.27;0.80;;;30.40;47.30;;;;;;5019231;28;20480;-83
2022/06/17 12:07:29;;;;;;;2.55;1.00;;;30.40;46.00;;;;;;5023744;28;20517;-82
2022/06/17 12:10:31;;;;;;;1.27;0.70;;;30.50;44.70;;;;;;5022930;28;20038;-82
2022/06/17 12:13:07;;;;;;;2.83;0.82;;;30.40;44.20;;;;;;5007551;28;20030;-83
2022/06/17 12:15:45;;;;;;;1.05;0.60;;;30.40;44.90;;;;;;5016661;28;20037;-83
2022/06/17 12:18:24;;;;;;;3.60;1.50;;;30.30;45.20;;;;;;5008697;28;20032;-82
2022/06/17 12:21:06;;;;;;;0.95;0.65;;;30.30;45.50;;;;;;5029647;28;20076;-82
2022/06/17 12:23:38;;;;;;;1.38;0.90;;;30.50;46.00;;;;;;5021185;28;20030;-83
2022/06/17 12:26:21;;;;;;;2.78;0.80;;;30.60;45.90;;;;;;5013671;28;20025;-82
2022/06/17 12:29:18;;;;;;;3.63;0.95;;;30.50;45.70;;;;;;5028536;28;20025;-82
2022/06/17 12:31:53;;;;;;;1.17;0.70;;;30.70;45.80;;;;;;5005710;28;20033;-81
2022/06/17 12:34:22;;;;;;;0.73;0.70;;;30.40;45.90;;;;;;5005748;28;20077;-82
2022/06/17 12:36:51;;;;;;;2.38;0.88;;;30.40;46.30;;;;;;5015384;28;20049;-81
2022/06/17 12:39:34;;;;;;;0.90;0.60;;;30.60;46.40;;;;;;5028622;28;20575;-83
2022/06/17 12:42:19;;;;;;;1.88;0.80;;;30.60;45.70;;;;;;5009267;28;20026;-82
2022/06/17 12:45:02;;;;;;;2.25;0.95;;;30.70;46.20;;;;;;5010019;28;20026;-84
2022/06/17 12:47:54;;;;;;;1.30;0.70;;;30.90;46.00;;;;;;5019956;28;20089;-85
2022/06/17 12:53:22;;;;;;;1.63;0.80;;;30.90;45.70;;;;;;5014460;28;20072;-84
2022/06/17 12:56:03;;;;;;;0.95;0.80;;;31.00;46.20;;;;;;5011485;28;20031;-82
2022/06/17 12:58:34;;;;;;;2.50;0.70;;;30.80;45.70;;;;;;5013217;28;20025;-84
2022/06/17 13:01:07;;;;;;;1.27;0.77;;;31.00;46.00;;;;;;5013804;28;20030;-82
2022/06/17 13:04:04;;;;;;;3.13;0.80;;;31.00;45.90;;;;;;5018236;28;20048;-83
2022/06/17 13:06:48;;;;;;;1.67;0.80;;;31.10;45.60;;;;;;5033046;28;20029;-83
2022/06/17 13:09:25;;;;;;;1.65;0.88;;;31.20;46.00;;;;;;5033213;28;20034;-83
2022/06/17 13:12:06;;;;;;;1.85;0.70;;;31.20;46.00;;;;;;5016100;28;20018;-82
2022/06/17 13:15:07;;;;;;;2.65;0.98;;;31.20;46.30;;;;;;5018204;28;20058;-84
2022/06/17 13:17:42;;;;;;;0.95;0.70;;;31.30;45.90;;;;;;4963525;28;20061;-84
2022/06/17 13:20:21;;;;;;;0.85;0.70;;;31.20;44.80;;;;;;5004888;28;20105;-82
2022/06/17 13:22:58;;;;;;;0.63;0.60;;;31.30;44.90;;;;;;5029563;28;20022;-83
2022/06/17 13:25:50;;;;;;;1.23;0.65;;;31.20;45.00;;;;;;5014254;28;20032;-84
2022/06/17 13:28:30;;;;;;;1.83;0.60;;;31.20;45.10;;;;;;5012040;28;20503;-83
2022/06/17 13:31:00;;;;;;;2.70;0.90;;;31.20;45.30;;;;;;5011284;28;20090;-84
2022/06/17 13:33:50;;;;;;;1.48;0.70;;;31.30;46.60;;;;;;5015528;28;20034;-83
2022/06/17 13:36:20;;;;;;;1.30;0.70;;;31.50;45.30;;;;;;5014593;28;20092;-83
2022/06/17 13:39:22;;;;;;;2.33;0.70;;;31.50;44.30;;;;;;5022041;28;20025;-83
2022/06/17 13:42:06;;;;;;;2.00;1.35;;;31.40;44.70;;;;;;5022607;28;20101;-83